Time;durP1;ratioP1;P1;durP2;ratioP2;P2;SDS_P1;SDS_P2;PMS_P1;PMS_P2;Temp;Humidity;BMP_temperature;BMP_pressure;BME280_temperature;BME280_humidity;BME280_pressure;Samples;Min_cycle;Max_cycle;Signal;HPM_P1;HPM_P2
2022/11/08 00:01:32;;;;;;;8.13;3.58;;;;;;;;;;5025088;28;20233;-73
2022/11/08 00:03:58;;;;;;;5.35;2.53;;;;;;;;;;5030494;28;20596;-73
2022/11/08 00:14:35;;;;;;;7.53;2.20;;;;;;;;;;5016588;28;20201;-72
2022/11/08 00:17:00;;;;;;;5.97;3.42;;;;;;;;;;5031206;28;20166;-71
2022/11/08 00:19:25;;;;;;;10.93;2.70;;;;;;;;;;5027000;28;20526;-73
2022/11/08 00:21:50;;;;;;;4.50;2.10;;;;;;;;;;5026096;28;20581;-73
2022/11/08 00:24:16;;;;;;;6.53;2.38;;;;;;;;;;5030632;28;20197;-73
2022/11/08 00:26:41;;;;;;;7.15;2.97;;;;;;;;;;5024340;28;20624;-73
2022/11/08 00:29:06;;;;;;;10.82;2.90;;;;;;;;;;5026640;28;20578;-70
2022/11/08 00:31:31;;;;;;;5.07;2.88;;;;;;;;;;5020627;28;20256;-73
2022/11/08 00:33:57;;;;;;;9.40;2.40;;;;;;;;;;5029571;28;20234;-73
2022/11/08 00:36:22;;;;;;;6.13;3.22;;;;;;;;;;5029886;28;20178;-69
2022/11/08 00:38:47;;;;;;;4.43;2.35;;;;;;;;;;5025787;28;20175;-73
2022/11/08 00:41:12;;;;;;;5.95;2.20;;;;;;;;;;5028632;28;20186;-73
2022/11/08 00:43:38;;;;;;;6.53;2.42;;;;;;;;;;5031307;28;20186;-72
2022/11/08 00:46:03;;;;;;;6.65;3.03;;;;;;;;;;5026317;28;20194;-72
2022/11/08 00:48:28;;;;;;;6.47;3.38;;;;;;;;;;5029035;28;20240;-73
2022/11/08 00:50:53;;;;;;;8.50;2.60;;;;;;;;;;5027878;28;20185;-73
2022/11/08 00:53:18;;;;;;;7.57;2.83;;;;;;;;;;5028034;28;20179;-73
2022/11/08 00:55:44;;;;;;;8.13;2.05;;;;;;;;;;5022053;28;20225;-72
2022/11/08 00:58:09;;;;;;;8.85;2.47;;;;;;;;;;5025868;28;20167;-73
2022/11/08 01:00:34;;;;;;;4.35;2.28;;;;;;;;;;5020087;28;20541;-70
2022/11/08 01:03:18;;;;;;;8.13;2.60;;;;;;;;;;5018947;28;20619;-73
2022/11/08 01:05:43;;;;;;;4.15;2.00;;;;;;;;;;5021655;28;20219;-73
2022/11/08 01:08:09;;;;;;;8.30;2.93;;;;;;;;;;5019207;28;20692;-70
2022/11/08 01:10:35;;;;;;;6.40;2.38;;;;;;;;;;5015426;28;20175;-73
2022/11/08 01:13:00;;;;;;;5.93;2.60;;;;;;;;;;5023749;28;20182;-74
2022/11/08 01:15:25;;;;;;;16.03;2.67;;;;;;;;;;5022309;28;20199;-73
2022/11/08 01:17:50;;;;;;;9.70;3.58;;;;;;;;;;5025651;28;20206;-74
2022/11/08 01:20:16;;;;;;;7.90;2.45;;;;;;;;;;5021711;28;20171;-74
2022/11/08 01:22:41;;;;;;;8.40;2.50;;;;;;;;;;5025181;28;20182;-73
2022/11/08 01:25:07;;;;;;;7.20;2.50;;;;;;;;;;5020267;28;20576;-73
2022/11/08 01:27:32;;;;;;;7.93;3.40;;;;;;;;;;5024953;28;20569;-73
2022/11/08 01:29:57;;;;;;;8.23;2.50;;;;;;;;;;5015281;28;20282;-72
2022/11/08 01:32:23;;;;;;;7.60;2.30;;;;;;;;;;5021890;28;20178;-72
2022/11/08 01:34:48;;;;;;;11.13;2.85;;;;;;;;;;5013795;28;20206;-72
2022/11/08 01:37:13;;;;;;;8.50;2.40;;;;;;;;;;5020579;28;20191;-72
2022/11/08 01:39:39;;;;;;;7.10;2.30;;;;;;;;;;5024138;28;20264;-72
2022/11/08 01:42:04;;;;;;;9.63;2.30;;;;;;;;;;5023900;28;20175;-73
2022/11/08 01:44:29;;;;;;;5.57;2.45;;;;;;;;;;5025750;28;20229;-73
2022/11/08 01:46:54;;;;;;;11.43;2.30;;;;;;;;;;5030667;28;20174;-73
2022/11/08 01:49:26;;;;;;;7.90;2.67;;;;;;;;;;5029740;28;20267;-73
2022/11/08 01:51:54;;;;;;;5.78;2.25;;;;;;;;;;5024171;28;20193;-72
2022/11/08 01:54:29;;;;;;;12.57;2.85;;;;;;;;;;5022834;28;20206;-72
2022/11/08 01:56:54;;;;;;;7.07;2.50;;;;;;;;;;5023099;28;20249;-72
2022/11/08 01:59:20;;;;;;;9.70;3.13;;;;;;;;;;5027359;28;20274;-72
2022/11/08 02:01:45;;;;;;;6.43;2.80;;;;;;;;;;5028189;28;20240;-73
2022/11/08 02:04:12;;;;;;;9.57;2.97;;;;;;;;;;5027569;28;20206;-72
2022/11/08 02:06:37;;;;;;;8.32;2.83;;;;;;;;;;5011857;28;20261;-72
2022/11/08 02:09:06;;;;;;;9.63;3.67;;;;;;;;;;5023773;28;20688;-73
2022/11/08 02:11:32;;;;;;;14.83;3.87;;;;;;;;;;5016257;28;20183;-73
2022/11/08 02:13:57;;;;;;;6.20;2.03;;;;;;;;;;5018353;28;20175;-73
2022/11/08 02:16:22;;;;;;;7.47;2.80;;;;;;;;;;5026000;28;20174;-73
2022/11/08 02:18:48;;;;;;;5.90;2.67;;;;;;;;;;5026480;28;20562;-72
2022/11/08 02:21:45;;;;;;;4.45;2.30;;;;;;;;;;5021770;28;20175;-71
2022/11/08 02:24:11;;;;;;;7.65;2.15;;;;;;;;;;4964861;28;20209;-73
2022/11/08 02:26:37;;;;;;;7.43;2.83;;;;;;;;;;5032533;28;20182;-73
2022/11/08 02:29:40;;;;;;;9.60;2.10;;;;;;;;;;5014306;28;20195;-73
2022/11/08 02:32:06;;;;;;;8.47;2.50;;;;;;;;;;4931812;29;20365;-73
2022/11/08 02:34:32;;;;;;;6.10;2.40;;;;;;;;;;4941537;29;20699;-73
2022/11/08 02:36:58;;;;;;;9.40;2.93;;;;;;;;;;4974709;28;20233;-72
2022/11/08 02:39:23;;;;;;;6.67;2.40;;;;;;;;;;5026470;28;20190;-73
2022/11/08 02:41:48;;;;;;;7.45;3.33;;;;;;;;;;5021306;28;20179;-72
2022/11/08 02:44:14;;;;;;;6.87;2.23;;;;;;;;;;5017489;28;20209;-73
2022/11/08 02:46:39;;;;;;;5.47;1.97;;;;;;;;;;5024684;28;20277;-73
2022/11/08 02:49:04;;;;;;;6.87;2.80;;;;;;;;;;5026806;28;20762;-73
2022/11/08 02:51:29;;;;;;;5.18;2.28;;;;;;;;;;5019561;28;20615;-73
2022/11/08 02:53:54;;;;;;;3.97;2.57;;;;;;;;;;5019710;28;20182;-72
2022/11/08 02:56:20;;;;;;;6.47;2.60;;;;;;;;;;5025079;28;20185;-72
2022/11/08 02:58:45;;;;;;;8.50;3.27;;;;;;;;;;5020474;28;20186;-71
2022/11/08 03:01:10;;;;;;;4.97;2.87;;;;;;;;;;5024115;28;20185;-72
2022/11/08 03:03:35;;;;;;;3.90;2.50;;;;;;;;;;5014991;28;20269;-73
2022/11/08 03:06:00;;;;;;;6.50;2.57;;;;;;;;;;5030260;28;20194;-73
2022/11/08 03:08:25;;;;;;;8.50;2.20;;;;;;;;;;5027139;28;20532;-72
2022/11/08 03:10:51;;;;;;;7.10;2.50;;;;;;;;;;5026776;28;20198;-72
2022/11/08 03:13:16;;;;;;;5.50;2.50;;;;;;;;;;5014811;28;20178;-71
2022/11/08 03:15:41;;;;;;;7.73;2.57;;;;;;;;;;5022060;28;20228;-71
2022/11/08 03:18:06;;;;;;;5.67;2.63;;;;;;;;;;5025488;28;20263;-72
2022/11/08 03:20:32;;;;;;;4.07;2.23;;;;;;;;;;5024071;28;20206;-73
2022/11/08 03:22:58;;;;;;;6.47;2.60;;;;;;;;;;5017822;28;20193;-72
2022/11/08 03:25:23;;;;;;;6.67;2.87;;;;;;;;;;5012273;28;20202;-72
2022/11/08 03:27:48;;;;;;;7.47;3.17;;;;;;;;;;5020949;28;20255;-72
2022/11/08 03:30:14;;;;;;;6.30;2.70;;;;;;;;;;5023372;28;20641;-71
2022/11/08 03:32:39;;;;;;;5.03;2.87;;;;;;;;;;5020459;28;20175;-72
2022/11/08 03:35:04;;;;;;;6.40;2.80;;;;;;;;;;5017176;28;20252;-73
2022/11/08 03:37:29;;;;;;;7.07;3.30;;;;;;;;;;5029038;28;20179;-73
2022/11/08 03:39:54;;;;;;;6.43;2.47;;;;;;;;;;5020585;28;20194;-73
2022/11/08 03:42:20;;;;;;;7.33;3.50;;;;;;;;;;5025934;28;20265;-73
2022/11/08 03:44:45;;;;;;;5.63;2.93;;;;;;;;;;5013080;28;20687;-73
2022/11/08 03:47:10;;;;;;;11.07;2.57;;;;;;;;;;5019986;28;20182;-73
2022/11/08 03:49:35;;;;;;;6.27;2.67;;;;;;;;;;5025449;28;20632;-74
2022/11/08 03:52:01;;;;;;;7.33;2.90;;;;;;;;;;5029373;28;20192;-74
2022/11/08 03:54:26;;;;;;;5.37;2.20;;;;;;;;;;5029214;28;20202;-74
2022/11/08 03:56:51;;;;;;;4.70;2.47;;;;;;;;;;5025409;28;20182;-74
2022/11/08 03:59:16;;;;;;;5.03;2.50;;;;;;;;;;5028078;28;20179;-74
2022/11/08 04:01:41;;;;;;;5.77;2.37;;;;;;;;;;5020997;28;20185;-74
2022/11/08 04:04:07;;;;;;;3.63;2.13;;;;;;;;;;5019669;28;20575;-74
2022/11/08 04:06:32;;;;;;;6.27;2.53;;;;;;;;;;5017209;28;20208;-73
2022/11/08 04:08:57;;;;;;;9.07;2.90;;;;;;;;;;5023339;28;20244;-73
2022/11/08 04:16:54;;;;;;;4.13;2.60;;;;;;;;;;5021181;28;20213;-73
2022/11/08 04:22:03;;;;;;;4.73;2.63;;;;;;;;;;5019617;28;20366;-73
2022/11/08 04:24:28;;;;;;;5.40;2.60;;;;;;;;;;5027724;28;20206;-73
2022/11/08 04:26:53;;;;;;;6.30;2.40;;;;;;;;;;5022798;28;20188;-73
2022/11/08 04:29:18;;;;;;;3.73;1.80;;;;;;;;;;5030432;28;20263;-73
2022/11/08 04:31:44;;;;;;;5.20;2.73;;;;;;;;;;5020476;28;20167;-73
2022/11/08 04:34:09;;;;;;;3.93;2.00;;;;;;;;;;5026416;28;20730;-74
2022/11/08 04:36:34;;;;;;;4.63;2.83;;;;;;;;;;5009969;28;20182;-73
2022/11/08 04:38:59;;;;;;;4.13;1.87;;;;;;;;;;5026594;28;20226;-73
2022/11/08 04:41:25;;;;;;;7.93;2.00;;;;;;;;;;5028021;28;20178;-73
2022/11/08 04:43:51;;;;;;;2.57;1.87;;;;;;;;;;5023786;28;20261;-73
2022/11/08 04:46:17;;;;;;;5.37;2.03;;;;;;;;;;5018787;28;20648;-73
2022/11/08 04:48:43;;;;;;;4.13;1.87;;;;;;;;;;5018962;28;20301;-73
2022/11/08 04:51:14;;;;;;;2.97;1.77;;;;;;;;;;5027020;28;20269;-73
2022/11/08 04:53:40;;;;;;;6.33;3.27;;;;;;;;;;5024120;28;20577;-74
2022/11/08 04:56:06;;;;;;;4.47;1.97;;;;;;;;;;5024610;28;20209;-73
2022/11/08 04:58:36;;;;;;;4.53;2.07;;;;;;;;;;5025536;28;20714;-73
2022/11/08 05:01:01;;;;;;;6.67;1.90;;;;;;;;;;5021164;28;20557;-73
2022/11/08 05:03:26;;;;;;;5.57;2.00;;;;;;;;;;5018990;28;20179;-74
2022/11/08 05:05:52;;;;;;;3.60;2.17;;;;;;;;;;5022996;28;20252;-74
2022/11/08 05:08:17;;;;;;;4.80;2.70;;;;;;;;;;5026066;28;20194;-74
2022/11/08 05:10:42;;;;;;;4.97;1.90;;;;;;;;;;5027689;28;20179;-74
2022/11/08 05:13:07;;;;;;;3.40;2.03;;;;;;;;;;5026517;28;20656;-74
2022/11/08 05:15:32;;;;;;;5.07;1.93;;;;;;;;;;5021890;28;20208;-73
2022/11/08 05:17:57;;;;;;;6.03;1.70;;;;;;;;;;5024217;28;20189;-73
2022/11/08 05:23:22;;;;;;;6.43;1.57;;;;;;;;;;5029441;28;20212;-74
2022/11/08 05:25:48;;;;;;;4.33;2.13;;;;;;;;;;5022905;28;20190;-74
2022/11/08 05:28:14;;;;;;;4.27;1.70;;;;;;;;;;5020905;28;20205;-73
2022/11/08 05:30:39;;;;;;;6.80;2.50;;;;;;;;;;5027751;28;20210;-73
2022/11/08 05:33:05;;;;;;;6.20;3.37;;;;;;;;;;5030653;28;20209;-73
2022/11/08 05:35:31;;;;;;;4.20;1.90;;;;;;;;;;5028997;28;20214;-74
2022/11/08 05:37:57;;;;;;;4.90;1.83;;;;;;;;;;5025475;28;20232;-74
2022/11/08 05:40:22;;;;;;;3.30;1.90;;;;;;;;;;5027749;28;20174;-73
2022/11/08 05:42:47;;;;;;;3.50;1.90;;;;;;;;;;5021549;28;20540;-74
2022/11/08 05:45:12;;;;;;;1.90;1.60;;;;;;;;;;5022759;28;20199;-74
2022/11/08 05:47:37;;;;;;;4.57;1.90;;;;;;;;;;5026779;28;20253;-74
2022/11/08 05:50:03;;;;;;;7.33;1.87;;;;;;;;;;5025499;28;20683;-74
2022/11/08 05:52:28;;;;;;;2.53;1.77;;;;;;;;;;5014317;28;20179;-74
2022/11/08 05:54:53;;;;;;;2.97;1.70;;;;;;;;;;5024517;28;20209;-73
2022/11/08 05:57:18;;;;;;;3.47;1.70;;;;;;;;;;5026201;28;20258;-74
2022/11/08 05:59:43;;;;;;;4.17;1.80;;;;;;;;;;5026050;28;20170;-74
2022/11/08 06:02:09;;;;;;;2.30;1.53;;;;;;;;;;5033374;28;20659;-74
2022/11/08 06:04:34;;;;;;;5.90;2.10;;;;;;;;;;5020211;28;20205;-74
2022/11/08 06:06:59;;;;;;;3.33;1.40;;;;;;;;;;5025610;28;20721;-74
2022/11/08 06:09:24;;;;;;;2.57;1.33;;;;;;;;;;5032946;28;20210;-74
2022/11/08 06:11:49;;;;;;;4.50;2.13;;;;;;;;;;5030035;28;20178;-74
2022/11/08 06:14:15;;;;;;;3.27;1.60;;;;;;;;;;5033540;28;20183;-74
2022/11/08 06:16:40;;;;;;;4.23;2.57;;;;;;;;;;5028207;28;20365;-73
2022/11/08 06:19:05;;;;;;;3.73;1.80;;;;;;;;;;5021524;28;20190;-74
2022/11/08 06:21:30;;;;;;;4.53;1.33;;;;;;;;;;5015587;28;20205;-74
2022/11/08 06:23:55;;;;;;;7.53;1.87;;;;;;;;;;5015800;28;20211;-74
2022/11/08 06:26:21;;;;;;;6.00;2.47;;;;;;;;;;5025285;28;20178;-73
2022/11/08 06:28:46;;;;;;;3.70;1.60;;;;;;;;;;5028293;28;20191;-73
2022/11/08 06:31:11;;;;;;;2.90;1.67;;;;;;;;;;5033189;28;20534;-73
2022/11/08 06:33:37;;;;;;;4.23;2.07;;;;;;;;;;5027244;28;20713;-73
2022/11/08 06:36:02;;;;;;;5.40;1.60;;;;;;;;;;5033611;28;20263;-74
2022/11/08 06:38:27;;;;;;;5.90;2.10;;;;;;;;;;5022730;28;20261;-73
2022/11/08 06:40:52;;;;;;;4.00;1.30;;;;;;;;;;5021423;28;20174;-74
2022/11/08 06:43:18;;;;;;;5.67;1.97;;;;;;;;;;5029879;28;20379;-74
2022/11/08 06:45:43;;;;;;;5.23;1.77;;;;;;;;;;5029798;28;20683;-74
2022/11/08 06:48:08;;;;;;;3.50;1.63;;;;;;;;;;5030543;28;20589;-74
2022/11/08 06:50:34;;;;;;;2.97;1.30;;;;;;;;;;5030820;28;20202;-74
2022/11/08 06:53:06;;;;;;;4.83;1.60;;;;;;;;;;5016562;28;20174;-74
2022/11/08 06:55:31;;;;;;;5.60;1.53;;;;;;;;;;5030491;28;20221;-74
2022/11/08 06:57:56;;;;;;;3.57;1.97;;;;;;;;;;5014626;28;20648;-74
2022/11/08 07:00:22;;;;;;;3.43;1.57;;;;;;;;;;5017709;28;20208;-74
2022/11/08 07:02:51;;;;;;;2.60;1.50;;;;;;;;;;5025526;28;20542;-74
2022/11/08 07:05:16;;;;;;;2.83;1.63;;;;;;;;;;5031653;28;20221;-74
2022/11/08 07:07:41;;;;;;;4.47;1.90;;;;;;;;;;5026152;28;20214;-74
2022/11/08 07:10:06;;;;;;;13.33;2.37;;;;;;;;;;5024970;28;20265;-73
2022/11/08 07:12:32;;;;;;;4.53;1.70;;;;;;;;;;5017422;28;20206;-74
2022/11/08 07:14:57;;;;;;;12.10;2.03;;;;;;;;;;5027827;28;20758;-74
2022/11/08 07:17:22;;;;;;;2.67;2.10;;;;;;;;;;5028795;28;20170;-74
2022/11/08 07:19:47;;;;;;;7.03;2.27;;;;;;;;;;5027168;28;20257;-74
2022/11/08 07:22:12;;;;;;;3.10;1.67;;;;;;;;;;5032324;28;20652;-73
2022/11/08 07:24:38;;;;;;;5.13;1.90;;;;;;;;;;5029535;28;20453;-73
2022/11/08 07:27:03;;;;;;;3.23;1.60;;;;;;;;;;5028586;28;20195;-73
2022/11/08 07:29:28;;;;;;;4.93;1.77;;;;;;;;;;5025714;28;20210;-73
2022/11/08 07:31:53;;;;;;;4.93;1.83;;;;;;;;;;5029077;28;20595;-74
2022/11/08 07:34:19;;;;;;;2.27;1.57;;;;;;;;;;5031288;28;20239;-75
2022/11/08 07:36:45;;;;;;;2.33;1.63;;;;;;;;;;5029486;28;20257;-74
2022/11/08 07:39:10;;;;;;;4.73;1.63;;;;;;;;;;5030905;28;20655;-74
2022/11/08 07:41:35;;;;;;;4.53;2.27;;;;;;;;;;5026800;28;20508;-74
2022/11/08 07:44:00;;;;;;;4.97;1.85;;;;;;;;;;5019577;28;20229;-74
2022/11/08 07:46:26;;;;;;;3.00;1.50;;;;;;;;;;5023083;28;20178;-74
2022/11/08 07:48:51;;;;;;;1.77;1.30;;;;;;;;;;5031771;28;20540;-74
2022/11/08 07:51:16;;;;;;;6.03;2.22;;;;;;;;;;5025447;28;20201;-74
2022/11/08 07:53:42;;;;;;;3.72;1.80;;;;;;;;;;5031018;28;20292;-74
2022/11/08 07:56:07;;;;;;;3.60;1.38;;;;;;;;;;5028527;28;20571;-75
2022/11/08 07:58:33;;;;;;;4.70;2.20;;;;;;;;;;5021878;28;20182;-75
2022/11/08 08:00:59;;;;;;;5.25;2.72;;;;;;;;;;5022769;28;20170;-74
2022/11/08 08:03:24;;;;;;;2.05;1.58;;;;;;;;;;5028175;28;20220;-74
2022/11/08 08:05:51;;;;;;;5.80;2.65;;;;;;;;;;5034064;28;20217;-74
2022/11/08 08:08:17;;;;;;;2.55;1.55;;;;;;;;;;5024303;28;20190;-74
2022/11/08 08:10:42;;;;;;;4.30;1.75;;;;;;;;;;5017883;28;20178;-74
2022/11/08 08:13:08;;;;;;;3.17;1.55;;;;;;;;;;5029657;28;20175;-74
2022/11/08 08:15:33;;;;;;;3.33;2.15;;;;;;;;;;5026554;28;20190;-73
2022/11/08 08:18:00;;;;;;;3.35;1.40;;;;;;;;;;5013040;28;20174;-74
2022/11/08 08:20:25;;;;;;;4.80;1.30;;;;;;;;;;5024052;28;20175;-73
2022/11/08 08:22:51;;;;;;;2.05;1.50;;;;;;;;;;5017223;28;20662;-74
2022/11/08 08:25:16;;;;;;;1.98;1.40;;;;;;;;;;5007108;28;20206;-74
2022/11/08 08:27:49;;;;;;;2.63;1.30;;;;;;;;;;5022296;28;20167;-75
2022/11/08 08:30:14;;;;;;;3.58;1.35;;;;;;;;;;5029222;28;20206;-75
2022/11/08 08:32:39;;;;;;;2.47;1.17;;;;;;;;;;5030460;28;20213;-74
2022/11/08 08:35:04;;;;;;;3.20;1.30;;;;;;;;;;5030207;28;20225;-74
2022/11/08 08:37:30;;;;;;;2.45;1.45;;;;;;;;;;5024348;28;20568;-74
2022/11/08 08:39:55;;;;;;;5.05;1.83;;;;;;;;;;5006655;28;20266;-74
2022/11/08 08:42:20;;;;;;;1.25;1.02;;;;;;;;;;5022846;28;20185;-73
2022/11/08 08:44:45;;;;;;;2.70;1.50;;;;;;;;;;5029904;28;20201;-74
2022/11/08 08:47:10;;;;;;;3.42;1.27;;;;;;;;;;5031232;28;20202;-74
2022/11/08 08:49:35;;;;;;;2.65;1.38;;;;;;;;;;5021169;28;20202;-74
2022/11/08 08:52:01;;;;;;;3.67;2.03;;;;;;;;;;5029003;28;20660;-74
2022/11/08 08:54:26;;;;;;;2.60;1.40;;;;;;;;;;5027938;28;20198;-74
2022/11/08 08:56:51;;;;;;;2.08;1.35;;;;;;;;;;5022253;28;20253;-74
2022/11/08 08:59:16;;;;;;;1.35;1.15;;;;;;;;;;5020058;28;20201;-74
2022/11/08 09:01:42;;;;;;;4.22;0.95;;;;;;;;;;5030237;28;20174;-74
2022/11/08 09:04:07;;;;;;;4.13;1.40;;;;;;;;;;5027259;28;20277;-74
2022/11/08 09:06:32;;;;;;;3.53;1.65;;;;;;;;;;5030662;28;20232;-74
2022/11/08 09:08:57;;;;;;;4.00;1.70;;;;;;;;;;5023750;28;20289;-73
2022/11/08 09:11:22;;;;;;;1.85;1.20;;;;;;;;;;5027632;28;20182;-74
2022/11/08 09:13:47;;;;;;;3.78;1.40;;;;;;;;;;5030804;28;20249;-74
2022/11/08 09:16:13;;;;;;;2.38;1.40;;;;;;;;;;5030689;28;20207;-74
2022/11/08 09:18:38;;;;;;;2.83;1.50;;;;;;;;;;5029002;28;20174;-74
2022/11/08 09:21:03;;;;;;;2.83;1.10;;;;;;;;;;5028002;28;20257;-74
2022/11/08 09:23:29;;;;;;;3.22;1.15;;;;;;;;;;5026632;28;20186;-74
2022/11/08 09:25:57;;;;;;;1.92;1.40;;;;;;;;;;5017371;28;20222;-74
2022/11/08 09:28:23;;;;;;;3.97;1.13;;;;;;;;;;5027754;28;20203;-74
2022/11/08 09:30:48;;;;;;;3.40;1.42;;;;;;;;;;5020911;28;20473;-74
2022/11/08 09:33:13;;;;;;;4.75;1.48;;;;;;;;;;5027838;28;20179;-74
2022/11/08 09:35:38;;;;;;;3.38;1.30;;;;;;;;;;5044778;22;20676;-68
2022/11/08 09:38:03;;;;;;;3.22;1.30;;;;;;;;;;5041608;28;20194;-69
2022/11/08 09:40:36;;;;;;;3.03;1.40;;;;;;;;;;5048141;28;20181;-69
2022/11/08 09:43:05;;;;;;;2.47;1.30;;;;;;;;;;5052783;28;20185;-68
2022/11/08 09:45:41;;;;;;;2.40;1.40;;;;;;;;;;5041605;28;20206;-69
2022/11/08 09:48:15;;;;;;;3.60;1.27;;;;;;;;;;5029773;28;20178;-69
2022/11/08 09:50:41;;;;;;;2.20;1.35;;;;;;;;;;5032322;28;20174;-68
2022/11/08 09:53:17;;;;;;;4.68;1.80;;;;;;;;;;5038561;28;20202;-68
2022/11/08 09:55:46;;;;;;;3.00;1.25;;;;;;;;;;5030624;28;20683;-68
2022/11/08 09:58:14;;;;;;;3.42;1.73;;;;;;;;;;5033489;28;20189;-68
2022/11/08 10:00:40;;;;;;;2.55;1.05;;;;;;;;;;5043285;28;20251;-69
2022/11/08 10:03:10;;;;;;;2.08;1.60;;;;;;;;;;5041088;28;20288;-68
2022/11/08 10:05:55;;;;;;;4.85;1.48;;;;;;;;;;5042935;28;20205;-68
2022/11/08 10:08:27;;;;;;;2.55;1.30;;;;;;;;;;5034330;28;20210;-68
2022/11/08 10:10:56;;;;;;;1.98;1.35;;;;;;;;;;5029761;28;20178;-68
2022/11/08 10:13:21;;;;;;;4.45;1.50;;;;;;;;;;5032391;28;20602;-68
2022/11/08 10:15:55;;;;;;;3.22;1.40;;;;;;;;;;5031247;28;20202;-68
2022/11/08 10:18:30;;;;;;;3.60;1.30;;;;;;;;;;5030262;28;20174;-69
2022/11/08 10:20:55;;;;;;;4.03;1.35;;;;;;;;;;5038862;28;20487;-67
2022/11/08 10:23:32;;;;;;;2.85;1.40;;;;;;;;;;5042222;28;20205;-68
2022/11/08 10:26:04;;;;;;;2.17;1.27;;;;;;;;;;5039269;28;20201;-68
2022/11/08 10:28:32;;;;;;;3.65;1.15;;;;;;;;;;5032501;28;20226;-68
2022/11/08 10:30:58;;;;;;;5.55;1.52;;;;;;;;;;5032799;28;20232;-68
2022/11/08 10:33:28;;;;;;;10.77;2.42;;;;;;;;;;5047276;28;20170;-68
2022/11/08 10:36:01;;;;;;;4.50;1.40;;;;;;;;;;5031354;28;20202;-68
2022/11/08 10:38:41;;;;;;;3.15;1.38;;;;;;;;;;5044231;28;20599;-68
2022/11/08 10:41:29;;;;;;;2.42;1.70;;;;;;;;;;5028232;28;20644;-68
2022/11/08 10:44:01;;;;;;;3.85;1.80;;;;;;;;;;5026615;28;20209;-68
2022/11/08 10:46:29;;;;;;;2.28;1.50;;;;;;;;;;5032795;28;20574;-68
2022/11/08 10:48:56;;;;;;;3.67;1.30;;;;;;;;;;5037856;28;20280;-68
2022/11/08 10:51:21;;;;;;;2.05;1.30;;;;;;;;;;5033206;28;20182;-68
2022/11/08 10:53:47;;;;;;;1.98;1.30;;;;;;;;;;5041986;28;20180;-68
2022/11/08 10:56:13;;;;;;;4.60;1.20;;;;;;;;;;5029041;28;20262;-68
2022/11/08 10:58:40;;;;;;;2.33;1.20;;;;;;;;;;5025874;28;20189;-68
2022/11/08 11:01:16;;;;;;;1.55;1.20;;;;;;;;;;5026182;28;20175;-67
2022/11/08 11:03:42;;;;;;;3.65;1.60;;;;;;;;;;5030526;28;20279;-68
2022/11/08 11:06:19;;;;;;;1.65;0.80;;;;;;;;;;5030003;28;20660;-68
2022/11/08 11:08:48;;;;;;;1.65;1.17;;;;;;;;;;5027675;28;20638;-68
2022/11/08 11:11:21;;;;;;;3.65;2.10;;;;;;;;;;5031185;28;20167;-69
2022/11/08 11:14:03;;;;;;;3.78;1.55;;;;;;;;;;5030896;28;20227;-68
2022/11/08 11:16:28;;;;;;;2.67;1.52;;;;;;;;;;5036167;28;20224;-68
2022/11/08 11:18:54;;;;;;;1.98;1.48;;;;;;;;;;5037874;28;20638;-68
2022/11/08 11:21:22;;;;;;;3.83;1.50;;;;;;;;;;5031054;28;20587;-68
2022/11/08 11:24:26;;;;;;;3.42;1.20;;;;;;;;;;5039021;28;20232;-68
2022/11/08 11:27:14;;;;;;;2.80;1.40;;;;;;;;;;4970619;28;20179;-68
2022/11/08 11:29:39;;;;;;;5.72;2.13;;;;;;;;;;4981388;28;20211;-69
2022/11/08 11:32:24;;;;;;;2.97;1.08;;;;;;;;;;5017407;28;20661;-69
2022/11/08 11:34:55;;;;;;;3.17;1.60;;;;;;;;;;5034984;28;20247;-68
2022/11/08 11:37:23;;;;;;;2.15;1.33;;;;;;;;;;5043914;28;20597;-69
2022/11/08 11:39:49;;;;;;;2.67;1.30;;;;;;;;;;5031065;28;20196;-69
2022/11/08 11:42:31;;;;;;;4.27;1.27;;;;;;;;;;5036922;28;20685;-68
2022/11/08 11:45:01;;;;;;;4.25;1.50;;;;;;;;;;5036029;28;20429;-69
2022/11/08 11:47:29;;;;;;;1.75;1.20;;;;;;;;;;5038559;28;20178;-68
2022/11/08 11:49:57;;;;;;;3.15;1.52;;;;;;;;;;5030975;28;20665;-68
2022/11/08 11:52:22;;;;;;;4.72;1.45;;;;;;;;;;5027644;28;20556;-69
2022/11/08 11:54:48;;;;;;;2.17;1.55;;;;;;;;;;5030378;28;20194;-69
2022/11/08 11:57:38;;;;;;;4.88;1.02;;;;;;;;;;5030958;28;20488;-69
2022/11/08 12:00:04;;;;;;;4.85;1.15;;;;;;;;;;5037571;28;20170;-68
2022/11/08 12:02:40;;;;;;;4.75;1.58;;;;;;;;;;5038923;28;20179;-68
2022/11/08 12:05:09;;;;;;;5.05;1.02;;;;;;;;;;5041225;28;20279;-68
2022/11/08 12:07:38;;;;;;;2.65;1.30;;;;;;;;;;5026033;28;20179;-68
2022/11/08 12:10:15;;;;;;;2.15;1.33;;;;;;;;;;5031121;28;20202;-68
2022/11/08 12:12:49;;;;;;;3.28;1.35;;;;;;;;;;5041768;28;20204;-68
2022/11/08 12:15:25;;;;;;;3.90;1.70;;;;;;;;;;5032208;28;20204;-69
2022/11/08 12:17:56;;;;;;;6.28;1.52;;;;;;;;;;5028164;28;20651;-68
2022/11/08 12:20:22;;;;;;;3.67;1.52;;;;;;;;;;5036457;28;20186;-68
2022/11/08 12:22:54;;;;;;;2.00;1.15;;;;;;;;;;5030740;28;20565;-69
2022/11/08 12:25:42;;;;;;;3.92;1.48;;;;;;;;;;5030605;28;20644;-69
2022/11/08 12:28:26;;;;;;;5.07;1.50;;;;;;;;;;4992441;28;20277;-69
2022/11/08 12:30:57;;;;;;;3.30;1.23;;;;;;;;;;5018589;28;20170;-68
2022/11/08 12:33:22;;;;;;;3.03;1.50;;;;;;;;;;5045902;28;20174;-69
2022/11/08 12:35:47;;;;;;;4.13;2.10;;;;;;;;;;5037308;28;20212;-69
2022/11/08 12:38:24;;;;;;;2.03;1.30;;;;;;;;;;5032162;28;20644;-68
2022/11/08 12:40:54;;;;;;;1.77;1.05;;;;;;;;;;5030633;28;20438;-69
2022/11/08 12:43:20;;;;;;;2.97;1.40;;;;;;;;;;5030644;28;20656;-68
2022/11/08 12:45:59;;;;;;;4.43;1.25;;;;;;;;;;5043108;28;20304;-68
2022/11/08 12:48:32;;;;;;;3.83;0.95;;;;;;;;;;5037825;28;20248;-69
2022/11/08 12:51:10;;;;;;;3.60;1.52;;;;;;;;;;5035104;28;20640;-68
2022/11/08 12:53:42;;;;;;;1.90;1.15;;;;;;;;;;5032465;28;20553;-69
2022/11/08 12:56:13;;;;;;;3.95;1.65;;;;;;;;;;5028250;28;20335;-69
2022/11/08 12:58:41;;;;;;;3.13;2.45;;;;;;;;;;5029725;28;20181;-68
2022/11/08 13:01:11;;;;;;;1.65;1.13;;;;;;;;;;5032853;28;20601;-69
2022/11/08 13:03:44;;;;;;;2.15;1.15;;;;;;;;;;5043753;28;20178;-69
2022/11/08 13:06:28;;;;;;;1.70;1.10;;;;;;;;;;5038101;28;20593;-68
2022/11/08 13:09:02;;;;;;;3.05;1.40;;;;;;;;;;5032910;28;20548;-68
2022/11/08 13:11:36;;;;;;;1.60;1.20;;;;;;;;;;5028606;28;20177;-68
2022/11/08 13:14:02;;;;;;;2.70;1.23;;;;;;;;;;5043608;28;20433;-69
2022/11/08 13:16:38;;;;;;;2.60;1.20;;;;;;;;;;5045560;28;20681;-68
2022/11/08 13:19:04;;;;;;;2.95;1.05;;;;;;;;;;5033959;28;20170;-69
2022/11/08 13:21:33;;;;;;;5.22;1.42;;;;;;;;;;5041521;28;20665;-69
2022/11/08 13:24:01;;;;;;;3.90;1.00;;;;;;;;;;5034531;28;20182;-69
2022/11/08 13:26:27;;;;;;;2.53;1.50;;;;;;;;;;5029733;28;20198;-68
2022/11/08 13:28:53;;;;;;;1.67;1.20;;;;;;;;;;5038038;28;20194;-68
2022/11/08 13:31:18;;;;;;;3.40;1.55;;;;;;;;;;5025198;28;20257;-68
2022/11/08 13:33:48;;;;;;;2.90;1.50;;;;;;;;;;5039145;28;20185;-68
2022/11/08 13:36:30;;;;;;;2.45;1.40;;;;;;;;;;5043735;28;20446;-68
2022/11/08 13:39:13;;;;;;;3.63;1.40;;;;;;;;;;5027746;28;20331;-68
2022/11/08 13:41:58;;;;;;;2.17;1.23;;;;;;;;;;5030390;28;20342;-68
2022/11/08 13:44:42;;;;;;;1.83;1.40;;;;;;;;;;5029808;28;20182;-68
2022/11/08 13:47:27;;;;;;;2.95;1.13;;;;;;;;;;5028095;28;20499;-68
2022/11/08 13:50:12;;;;;;;3.85;1.40;;;;;;;;;;5032303;28;20213;-68
2022/11/08 13:52:42;;;;;;;3.22;1.50;;;;;;;;;;5030766;28;20193;-68
2022/11/08 13:55:27;;;;;;;3.67;1.35;;;;;;;;;;5028172;28;20206;-68
2022/11/08 13:57:57;;;;;;;3.25;1.38;;;;;;;;;;5028443;28;20210;-68
2022/11/08 14:00:33;;;;;;;4.60;1.77;;;;;;;;;;5032574;28;20182;-68
2022/11/08 14:02:58;;;;;;;4.72;1.52;;;;;;;;;;5034992;28;20184;-68
2022/11/08 14:05:24;;;;;;;4.95;1.67;;;;;;;;;;5023670;28;20219;-68
2022/11/08 14:08:00;;;;;;;3.13;2.47;;;;;;;;;;5027689;28;20178;-68
2022/11/08 14:10:37;;;;;;;2.20;1.20;;;;;;;;;;5031758;28;20208;-68
2022/11/08 14:13:13;;;;;;;6.47;1.80;;;;;;;;;;5037487;28;20169;-69
2022/11/08 14:15:49;;;;;;;3.33;1.50;;;;;;;;;;5028749;28;20189;-67
2022/11/08 14:18:21;;;;;;;2.70;1.27;;;;;;;;;;5056844;28;20253;-67
2022/11/08 14:20:47;;;;;;;2.88;1.30;;;;;;;;;;5023247;28;20707;-67
2022/11/08 14:23:12;;;;;;;6.00;1.58;;;;;;;;;;5029474;28;20194;-69
2022/11/08 14:25:38;;;;;;;2.60;1.35;;;;;;;;;;5032879;28;20217;-68
2022/11/08 14:28:03;;;;;;;2.25;1.15;;;;;;;;;;5042330;28;20174;-67
2022/11/08 14:30:29;;;;;;;6.75;2.42;;;;;;;;;;5042190;28;20245;-67
2022/11/08 14:33:04;;;;;;;3.40;1.23;;;;;;;;;;5035806;28;20170;-67
2022/11/08 14:35:29;;;;;;;5.55;1.50;;;;;;;;;;5026740;28;20214;-66
2022/11/08 14:37:55;;;;;;;2.83;1.50;;;;;;;;;;5041000;28;20228;-67
2022/11/08 14:40:22;;;;;;;2.80;1.00;;;;;;;;;;5036517;28;20170;-69
2022/11/08 14:42:47;;;;;;;3.83;1.48;;;;;;;;;;5057432;28;20178;-69
2022/11/08 14:45:14;;;;;;;1.92;1.33;;;;;;;;;;5040741;28;20281;-69
2022/11/08 14:47:41;;;;;;;4.30;1.48;;;;;;;;;;5034904;28;20205;-68
2022/11/08 14:50:16;;;;;;;2.10;1.02;;;;;;;;;;5037725;28;20219;-68
2022/11/08 14:52:42;;;;;;;2.72;1.30;;;;;;;;;;5039811;28;20170;-68
2022/11/08 14:55:08;;;;;;;4.35;1.40;;;;;;;;;;5041957;28;20193;-68
2022/11/08 14:57:39;;;;;;;2.80;1.48;;;;;;;;;;5030394;28;20767;-68
2022/11/08 15:00:17;;;;;;;1.25;0.95;;;;;;;;;;5038654;28;20248;-69
2022/11/08 15:02:47;;;;;;;3.78;1.65;;;;;;;;;;5034517;28;20212;-68
2022/11/08 15:05:29;;;;;;;2.10;1.13;;;;;;;;;;5043546;28;20285;-69
2022/11/08 15:07:54;;;;;;;1.95;1.42;;;;;;;;;;5042785;28;20173;-69